»·PEaware :: ANA9409 RJAA-NZAA

ANA9409 :: RJAA-NZAA

FLIGHT INFORMATION

Flight Status: Arrived
Operator:
All Nippon Airways
More flights by this operator :: More flights under this callsign
Pilot: Anonymous 14085 (14085)
Aircraft: Unknown
(B77W)
More flights by this aircraft type
Origin: RJAA New Tokyo Intl (Narita)
Japan
Destination: NZAA Auckland Intl
New Zealand
More flights between these airports :: More routes between these airports
Route: CUPID3 CUPID Y820 ADKAK G223 SEGRO 21N153E 14N156E PNI 00N160E MANOT NIPER 20S166E LEKAX A597 DUGAN BASI5B
File this flight plan on PilotEdge
Remarks: PBN / A1B1C1D1L1O1S2 DOF / 170621 REG / N713SB EET / KZAK0206 21N153E0214 14N156E0308 KZAK0445 ANAU0456 AGGG0549 NFFF0633 20S166E0733 NZZO0826 OPR / ANA RALT / PGUM NVVV RMK / TCAS SIMBRIEF
Altitude:
(Current/Filed)
31,000ft
Speed:
(Current/Filed)
499kts
Departed: 20-Jun-17 07:15 PM
Arrived: 21-Jun-17 08:41 AM
Distance/Time
Traveled:
4768nm/13:26
Distance/Time
To Go:
Arrived

Flight Plot

Page will automatically refresh every two minutes.

Flight plan parsing failed; only flown route is shown


Map Options




Map Legend


Flown Route
Filed Route
Departure Airport
Arrival Airport
Navaid (VOR, NDB)
Fix

Horizontal Profiles

Position Reports

Time Latitude Longitude Heading Altitude Ground
Speed
20-Jun-17 19:10 35.774738 140.368068 149 136ft 0kts
20-Jun-17 19:11 35.774738 140.368068 149 136ft 0kts
20-Jun-17 19:13 35.774738 140.368068 149 135ft 0kts
20-Jun-17 19:14 35.774738 140.368068 149 135ft 0kts
20-Jun-17 19:15 35.774738 140.368068 149 135ft 0kts
20-Jun-17 19:16 35.774738 140.368068 149 135ft 0kts
20-Jun-17 19:17 35.774576 140.368184 149 135ft 7kts
20-Jun-17 19:18 35.741841 140.391758 147 1923ft 232kts
20-Jun-17 19:19 35.687137 140.431924 152 4787ft 207kts
20-Jun-17 19:20 35.640234 140.465872 153 7126ft 225kts
20-Jun-17 19:21 35.578419 140.509567 155 10819ft 317kts
20-Jun-17 19:22 35.492936 140.571049 155 17041ft 388kts
20-Jun-17 19:23 35.417235 140.679598 116 23242ft 472kts
20-Jun-17 19:24 35.406538 140.846853 78 29212ft 532kts
20-Jun-17 19:25 35.452339 141.024631 82 32830ft 560kts
20-Jun-17 19:26 35.433967 141.208941 117 32866ft 543kts
20-Jun-17 19:27 35.344441 141.345853 152 32832ft 490kts
20-Jun-17 19:28 35.221419 141.393589 179 32874ft 463kts
20-Jun-17 19:29 35.101649 141.458564 145 32868ft 496kts
20-Jun-17 19:30 34.994299 141.562687 148 32863ft 493kts
20-Jun-17 19:31 34.887217 141.661757 149 32860ft 493kts
20-Jun-17 19:32 34.774223 141.751509 165 32865ft 476kts
20-Jun-17 19:33 34.654733 141.809240 165 32857ft 476kts
20-Jun-17 19:34 34.531882 141.867674 165 32857ft 476kts
20-Jun-17 19:35 34.408885 141.925921 165 32858ft 476kts
20-Jun-17 19:36 34.285603 141.984111 165 32858ft 476kts
20-Jun-17 19:37 34.162490 142.042038 165 32858ft 476kts
20-Jun-17 19:38 34.039626 142.099667 165 32858ft 476kts
20-Jun-17 19:39 33.919293 142.166675 150 32864ft 491kts
20-Jun-17 19:40 33.835721 142.300054 120 32875ft 517kts
20-Jun-17 19:41 33.767443 142.450577 124 32866ft 514kts
20-Jun-17 19:42 33.696862 142.599765 124 32867ft 514kts
20-Jun-17 19:43 33.626221 142.748231 125 32857ft 513kts
20-Jun-17 19:44 33.555356 142.896522 125 32858ft 513kts
20-Jun-17 19:45 33.484341 143.044524 125 32859ft 513kts
20-Jun-17 19:46 33.413134 143.192316 125 32861ft 513kts
20-Jun-17 19:47 33.341648 143.339919 125 32862ft 513kts
20-Jun-17 19:48 33.271515 143.484055 125 32863ft 513kts
20-Jun-17 19:49 33.199687 143.631082 125 32865ft 513kts
20-Jun-17 19:50 33.127635 143.777971 125 32854ft 513kts
20-Jun-17 19:51 33.055597 143.924235 125 32856ft 513kts
20-Jun-17 19:52 32.983155 144.070741 125 32857ft 513kts
20-Jun-17 19:53 32.910726 144.216640 125 32858ft 513kts
20-Jun-17 19:54 32.837971 144.362603 125 32865ft 513kts
20-Jun-17 19:55 32.765296 144.507837 125 32867ft 513kts
20-Jun-17 19:56 32.692435 144.652863 126 32867ft 513kts
20-Jun-17 19:57 32.619315 144.797851 126 32857ft 512kts
20-Jun-17 19:58 32.546262 144.942128 126 32858ft 512kts
20-Jun-17 19:59 32.472793 145.086670 126 32860ft 512kts
20-Jun-17 20:00 32.399346 145.230610 126 32861ft 512kts
20-Jun-17 20:01 32.325430 145.374910 126 32862ft 512kts
20-Jun-17 20:02 32.251587 145.518520 126 32864ft 512kts
20-Jun-17 20:03 32.177849 145.661374 127 32861ft 512kts
20-Jun-17 20:04 32.103756 145.804365 127 32854ft 511kts
20-Jun-17 20:05 32.029272 145.947285 128 32853ft 510kts
20-Jun-17 20:06 31.931640 146.055946 150 32839ft 491kts
20-Jun-17 20:07 31.821428 146.148930 151 32835ft 489kts
20-Jun-17 20:08 31.710605 146.241311 151 32836ft 489kts
20-Jun-17 20:09 31.599564 146.333556 151 32837ft 489kts
20-Jun-17 20:10 31.488721 146.425362 151 32837ft 489kts
20-Jun-17 20:11 31.377757 146.516995 151 32838ft 489kts
20-Jun-17 20:12 31.266435 146.608654 151 32838ft 489kts
20-Jun-17 20:13 31.155709 146.699555 151 32827ft 489kts
20-Jun-17 20:14 31.044631 146.790472 151 32827ft 489kts
20-Jun-17 20:15 30.933458 146.881208 151 32827ft 489kts
20-Jun-17 20:16 30.823264 146.970890 151 32833ft 489kts
20-Jun-17 20:17 30.706014 147.065956 151 32835ft 525kts
20-Jun-17 20:18 30.586647 147.162591 151 32834ft 524kts
20-Jun-17 20:19 30.467259 147.258880 151 32835ft 524kts
20-Jun-17 20:20 30.347965 147.354799 151 32869ft 524kts
20-Jun-17 20:21 30.228292 147.450733 151 33049ft 525kts
20-Jun-17 20:22 30.110013 147.545263 151 33053ft 524kts
20-Jun-17 20:23 29.990188 147.640740 151 33053ft 524kts
20-Jun-17 20:24 29.870491 147.735801 152 33047ft 524kts
20-Jun-17 20:25 29.750834 147.830556 152 33047ft 524kts
20-Jun-17 20:26 29.630953 147.925205 152 33048ft 524kts
20-Jun-17 20:27 29.511193 148.019480 152 33048ft 524kts
20-Jun-17 20:28 29.391282 148.113601 152 33049ft 524kts
20-Jun-17 20:29 29.271145 148.207625 152 33049ft 524kts
20-Jun-17 20:30 29.150845 148.301506 152 33050ft 524kts
20-Jun-17 20:31 29.030685 148.395007 152 33050ft 524kts
20-Jun-17 20:32 28.910723 148.488087 152 33051ft 524kts
20-Jun-17 20:33 28.790241 148.581297 152 33057ft 524kts
20-Jun-17 20:34 28.670056 148.674025 152 33042ft 523kts
20-Jun-17 20:35 28.549749 148.766575 152 33026ft 524kts
20-Jun-17 20:36 28.429073 148.859156 152 33019ft 524kts
20-Jun-17 20:37 28.308852 148.951128 152 33019ft 524kts
20-Jun-17 20:38 28.188171 149.043197 152 33020ft 524kts
20-Jun-17 20:39 28.067632 149.134904 152 33020ft 524kts
20-Jun-17 20:40 27.946899 149.226507 152 33021ft 524kts
20-Jun-17 20:41 27.825919 149.318043 152 33026ft 524kts
20-Jun-17 20:42 27.705194 149.409139 152 33027ft 524kts
20-Jun-17 20:43 27.584575 149.499911 152 33028ft 524kts
20-Jun-17 20:44 27.463635 149.590680 152 33029ft 524kts
20-Jun-17 20:45 27.342526 149.681336 153 33013ft 523kts
20-Jun-17 20:46 27.221681 149.771542 153 33016ft 523kts
20-Jun-17 20:47 27.100599 149.861692 153 33017ft 523kts
20-Jun-17 20:48 26.979506 149.951614 153 33017ft 523kts
20-Jun-17 20:49 26.858421 150.041295 153 33024ft 523kts
20-Jun-17 20:50 26.737212 150.130834 153 33024ft 523kts
20-Jun-17 20:51 26.615966 150.220167 153 33025ft 523kts
20-Jun-17 20:52 26.495058 150.309024 153 33025ft 523kts
20-Jun-17 20:53 26.373865 150.397861 153 33026ft 523kts
20-Jun-17 20:54 26.252798 150.486383 153 33026ft 522kts
20-Jun-17 20:55 26.131221 150.575047 153 33026ft 522kts
20-Jun-17 20:56 26.009910 150.663302 153 33016ft 522kts
20-Jun-17 20:57 25.888710 150.751239 153 33017ft 522kts
20-Jun-17 20:58 25.767678 150.838851 153 33020ft 522kts
20-Jun-17 20:59 25.645979 150.926723 153 33021ft 522kts
20-Jun-17 21:00 25.524723 151.014059 153 33021ft 522kts
20-Jun-17 21:01 25.403138 151.101418 153 33022ft 522kts
20-Jun-17 21:02 25.281860 151.188346 153 33022ft 522kts
20-Jun-17 21:03 25.160007 151.275475 153 33023ft 522kts
20-Jun-17 21:04 25.038749 151.361970 153 33023ft 522kts
20-Jun-17 21:05 24.909327 151.426332 165 33023ft 509kts
20-Jun-17 21:06 24.777745 151.482293 165 33029ft 509kts
20-Jun-17 21:06 24.668135 151.528588 165 33029ft 509kts
20-Jun-17 21:08 24.514401 151.593339 165 33029ft 509kts
20-Jun-17 21:08 24.404489 151.639527 165 33029ft 509kts
20-Jun-17 21:10 24.253430 151.702861 165 33016ft 508kts
20-Jun-17 21:11 24.121626 151.757992 165 33016ft 508kts
20-Jun-17 21:11 24.011875 151.803806 165 33016ft 508kts
20-Jun-17 21:12 23.880054 151.858723 165 33020ft 508kts
20-Jun-17 21:14 23.726567 151.922516 165 33021ft 508kts
20-Jun-17 21:14 23.616784 151.968045 165 33021ft 508kts
20-Jun-17 21:15 23.484630 152.022741 165 33021ft 508kts
20-Jun-17 21:16 23.352915 152.077141 165 33021ft 508kts
20-Jun-17 21:17 23.221045 152.131489 165 33021ft 508kts
20-Jun-17 21:18 23.089531 152.185576 165 33021ft 508kts
20-Jun-17 21:19 22.957445 152.239780 165 32969ft 509kts
20-Jun-17 21:20 22.825571 152.293789 165 32945ft 509kts
20-Jun-17 21:21 22.693374 152.347816 165 32946ft 509kts
20-Jun-17 21:22 22.561447 152.401622 165 32945ft 509kts
20-Jun-17 21:23 22.429220 152.455441 165 32945ft 509kts
20-Jun-17 21:24 22.297295 152.509027 165 32945ft 509kts
20-Jun-17 21:25 22.165290 152.562538 165 32945ft 509kts
20-Jun-17 21:26 22.033188 152.615981 165 32945ft 509kts
20-Jun-17 21:27 21.900762 152.669446 165 32930ft 508kts
20-Jun-17 21:28 21.768519 152.722749 166 32938ft 509kts
20-Jun-17 21:30 21.636127 152.775971 166 32938ft 509kts
20-Jun-17 21:31 21.504231 152.828906 166 32938ft 509kts
20-Jun-17 21:32 21.371696 152.881996 166 32938ft 509kts
20-Jun-17 21:33 21.239650 152.934789 166 32937ft 509kts
20-Jun-17 21:34 21.107192 152.987644 166 32937ft 509kts
20-Jun-17 21:35 20.974993 153.040297 166 32937ft 509kts
20-Jun-17 21:36 20.844270 153.092263 166 32943ft 509kts
20-Jun-17 21:37 20.711971 153.144757 166 32943ft 509kts
20-Jun-17 21:38 20.579421 153.197253 166 32943ft 509kts
20-Jun-17 21:39 20.446913 153.249636 166 32943ft 509kts
20-Jun-17 21:40 20.314701 153.301805 166 32943ft 509kts
20-Jun-17 21:41 20.182018 153.354065 166 32943ft 509kts
20-Jun-17 21:42 20.049660 153.406103 166 32943ft 509kts
20-Jun-17 21:43 19.917556 153.457947 166 32943ft 509kts
20-Jun-17 21:44 19.784887 153.509913 166 32949ft 509kts
20-Jun-17 21:45 19.652361 153.561737 166 32949ft 509kts
20-Jun-17 21:46 19.519956 153.613424 166 32949ft 509kts
20-Jun-17 21:47 19.387479 153.665048 166 32932ft 508kts
20-Jun-17 21:48 19.255395 153.716426 166 32935ft 509kts
20-Jun-17 21:49 19.124872 153.766508 162 32928ft 474kts
20-Jun-17 21:50 19.002675 153.814391 162 32935ft 472kts
20-Jun-17 21:51 18.879794 153.862047 162 32943ft 472kts
20-Jun-17 21:52 18.757168 153.909450 162 32943ft 472kts
20-Jun-17 21:53 18.634250 153.956882 162 32942ft 472kts
20-Jun-17 21:54 18.511176 154.004302 162 32940ft 472kts
20-Jun-17 21:55 18.388054 154.051663 162 32939ft 472kts
20-Jun-17 21:56 18.265277 154.098828 162 32937ft 472kts
20-Jun-17 21:57 18.142223 154.146024 162 32936ft 472kts
20-Jun-17 21:58 18.019243 154.193119 162 32934ft 472kts
20-Jun-17 21:59 17.896654 154.240000 162 32934ft 472kts
20-Jun-17 22:00 17.773386 154.287052 162 32944ft 471kts
20-Jun-17 22:01 17.650693 154.333843 162 32942ft 471kts
20-Jun-17 22:02 17.527619 154.380700 162 32941ft 471kts
20-Jun-17 22:03 17.404615 154.427463 162 32939ft 471kts
20-Jun-17 22:04 17.282016 154.474004 162 32938ft 471kts
20-Jun-17 22:05 17.158921 154.520669 162 32936ft 471kts
20-Jun-17 22:06 17.036097 154.567161 162 32935ft 471kts
20-Jun-17 22:07 16.912970 154.613711 162 32934ft 471kts
20-Jun-17 22:08 16.790052 154.660100 162 32943ft 471kts
20-Jun-17 22:09 16.667062 154.706470 162 32942ft 471kts
20-Jun-17 22:10 16.544314 154.752678 162 32940ft 471kts
20-Jun-17 22:11 16.421034 154.799025 162 32939ft 471kts
20-Jun-17 22:12 16.298209 154.845134 162 32937ft 471kts
20-Jun-17 22:13 16.175333 154.891208 162 32936ft 471kts
20-Jun-17 22:14 16.052466 154.937215 162 32934ft 471kts
20-Jun-17 22:15 15.929150 154.983329 162 32933ft 471kts
20-Jun-17 22:16 15.806366 155.029182 162 32862ft 471kts
20-Jun-17 22:17 15.683416 155.075041 162 32861ft 471kts
20-Jun-17 22:18 15.560347 155.120880 162 32860ft 471kts
20-Jun-17 22:19 15.437199 155.166700 162 32858ft 471kts
20-Jun-17 22:20 15.314324 155.212355 162 32857ft 471kts
20-Jun-17 22:21 15.191211 155.258042 162 32855ft 471kts
20-Jun-17 22:22 15.068063 155.303685 162 32854ft 471kts
20-Jun-17 22:23 14.944586 155.349393 162 32852ft 471kts
20-Jun-17 22:24 14.820710 155.395076 161 32856ft 477kts
20-Jun-17 22:25 14.696384 155.441089 161 32861ft 477kts
20-Jun-17 22:26 14.571530 155.487142 161 32859ft 477kts
20-Jun-17 22:27 14.447187 155.532955 161 32858ft 477kts
20-Jun-17 22:28 14.322092 155.578993 161 32862ft 476kts
20-Jun-17 22:29 14.197648 155.624720 161 32883ft 477kts
20-Jun-17 22:30 14.072975 155.670474 161 32882ft 477kts
20-Jun-17 22:31 13.948374 155.716164 161 32881ft 477kts
20-Jun-17 22:32 13.823940 155.761738 161 32889ft 477kts
20-Jun-17 22:33 13.699379 155.807304 161 32888ft 477kts
20-Jun-17 22:34 13.574634 155.852882 161 32887ft 477kts
20-Jun-17 22:35 13.449178 155.898704 161 32877ft 476kts
20-Jun-17 22:36 13.324956 155.943968 161 32885ft 477kts
20-Jun-17 22:37 13.200128 155.989424 161 32883ft 477kts
20-Jun-17 22:38 13.075186 156.034875 161 32882ft 477kts
20-Jun-17 22:39 12.950484 156.080198 161 32880ft 477kts
20-Jun-17 22:40 12.825846 156.125443 161 32888ft 477kts
20-Jun-17 22:41 12.701065 156.170693 161 32888ft 477kts
20-Jun-17 22:42 12.576247 156.215900 160 32883ft 478kts
20-Jun-17 22:43 12.450896 156.261278 161 32890ft 477kts
20-Jun-17 22:44 12.326354 156.306296 161 32884ft 477kts
20-Jun-17 22:45 12.201486 156.351393 161 32883ft 477kts
20-Jun-17 22:46 12.076401 156.396519 161 32881ft 477kts
20-Jun-17 22:47 11.951600 156.441501 161 32880ft 477kts
20-Jun-17 22:48 11.826586 156.486535 161 32870ft 474kts
20-Jun-17 22:49 11.701590 156.531479 161 32887ft 478kts
20-Jun-17 22:50 11.576529 156.576411 161 32886ft 478kts
20-Jun-17 22:51 11.451460 156.621329 161 32884ft 478kts
20-Jun-17 22:52 11.326674 156.666086 161 32885ft 478kts
20-Jun-17 22:53 11.201532 156.710936 161 32884ft 478kts
20-Jun-17 22:54 11.076546 156.755686 161 32882ft 478kts
20-Jun-17 22:55 10.951295 156.800486 161 32881ft 478kts
20-Jun-17 22:56 10.828434 156.844402 161 32889ft 478kts
20-Jun-17 22:57 10.702716 156.889301 161 32892ft 475kts
20-Jun-17 22:58 10.577661 156.933911 161 32887ft 478kts
20-Jun-17 22:59 10.452519 156.978518 161 32886ft 478kts
20-Jun-17 23:00 10.327591 157.023009 161 32884ft 478kts
20-Jun-17 23:01 10.202260 157.067612 161 32883ft 478kts
20-Jun-17 23:02 10.076953 157.112165 161 32882ft 478kts
20-Jun-17 23:03 9.951252 157.156834 161 32884ft 475kts
20-Jun-17 23:04 9.826321 157.201171 161 32888ft 478kts
20-Jun-17 23:05 9.700869 157.245664 161 32887ft 478kts
20-Jun-17 23:06 9.575877 157.289965 161 32886ft 478kts
20-Jun-17 23:07 9.450171 157.334478 161 32885ft 478kts
20-Jun-17 23:08 9.325047 157.378759 161 32883ft 478kts
20-Jun-17 23:09 9.199796 157.423053 161 32915ft 477kts
20-Jun-17 23:10 9.074574 157.467289 161 32908ft 478kts
20-Jun-17 23:11 8.949376 157.511497 161 32907ft 478kts
20-Jun-17 23:12 8.824490 157.555552 161 32914ft 478kts
20-Jun-17 23:13 8.699424 157.599641 160 32913ft 478kts
20-Jun-17 23:14 8.573770 157.643920 161 32905ft 475kts
20-Jun-17 23:15 8.448680 157.687951 161 32913ft 478kts
20-Jun-17 23:16 8.323181 157.732102 161 32912ft 478kts
20-Jun-17 23:17 8.197904 157.776147 161 32911ft 478kts
20-Jun-17 23:18 8.072378 157.820249 161 32910ft 478kts
20-Jun-17 23:19 7.947127 157.864222 161 32908ft 478kts
20-Jun-17 23:20 7.822378 157.907994 161 33677ft 497kts
20-Jun-17 23:21 7.697025 157.951956 161 34940ft 473kts
20-Jun-17 23:22 7.573227 157.995341 161 34914ft 472kts
20-Jun-17 23:23 7.449423 158.038698 161 34912ft 472kts
20-Jun-17 23:24 7.325670 158.082013 161 34911ft 472kts
20-Jun-17 23:25 7.201681 158.125386 161 34910ft 473kts
20-Jun-17 23:26 7.078149 158.168574 161 34909ft 473kts
20-Jun-17 23:27 6.953754 158.210577 164 34907ft 472kts
20-Jun-17 23:28 6.828023 158.247672 163 34915ft 472kts
20-Jun-17 23:29 6.702287 158.284859 164 34893ft 468kts
20-Jun-17 23:30 6.576612 158.321945 163 34913ft 472kts
20-Jun-17 23:31 6.451079 158.358994 163 34912ft 472kts
20-Jun-17 23:32 6.325397 158.396074 163 34911ft 472kts
20-Jun-17 23:33 6.200132 158.433010 163 34909ft 472kts
20-Jun-17 23:33 6.095203 158.463937 163 34908ft 472kts
20-Jun-17 23:34 5.969760 158.500893 163 34907ft 472kts
20-Jun-17 23:36 5.822803 158.544159 163 34914ft 472kts
20-Jun-17 23:37 5.697292 158.581083 163 34913ft 472kts
20-Jun-17 23:38 5.571712 158.618034 163 34912ft 472kts
20-Jun-17 23:38 5.466673 158.648922 163 34911ft 472kts
20-Jun-17 23:39 5.340962 158.685870 163 34912ft 472kts
20-Jun-17 23:40 5.215258 158.722800 163 34911ft 472kts
20-Jun-17 23:41 5.089499 158.759732 163 34910ft 472kts
20-Jun-17 23:42 4.963558 158.796701 163 34909ft 472kts
20-Jun-17 23:43 4.837893 158.833579 163 34916ft 472kts
20-Jun-17 23:44 4.711939 158.870517 163 34915ft 472kts
20-Jun-17 23:45 4.586462 158.907314 163 34914ft 472kts
20-Jun-17 23:46 4.460777 158.944152 163 34913ft 472kts
20-Jun-17 23:47 4.334994 158.981006 163 34912ft 473kts
20-Jun-17 23:48 4.208877 159.017945 163 34910ft 473kts
20-Jun-17 23:49 4.083130 159.054764 163 34909ft 473kts
20-Jun-17 23:51 3.957340 159.091583 163 34908ft 473kts
20-Jun-17 23:52 3.831561 159.128387 163 34915ft 473kts
20-Jun-17 23:53 3.705500 159.165255 163 34914ft 473kts
20-Jun-17 23:54 3.579476 159.202115 163 34913ft 473kts
20-Jun-17 23:55 3.453754 159.238870 163 34912ft 473kts
20-Jun-17 23:56 3.327679 159.275718 163 34911ft 473kts
20-Jun-17 23:57 3.201875 159.312477 163 34910ft 473kts
20-Jun-17 23:58 3.076711 159.348997 163 34906ft 465kts
20-Jun-17 23:59 2.952648 159.385263 163 34906ft 467kts
21-Jun-17 00:00 2.828424 159.421540 163 34914ft 467kts
21-Jun-17 00:01 2.703905 159.457887 163 34913ft 467kts
21-Jun-17 00:02 2.579732 159.494127 163 34912ft 466kts
21-Jun-17 00:03 2.455761 159.530307 163 34910ft 466kts
21-Jun-17 00:04 2.331646 159.566511 163 34909ft 466kts
21-Jun-17 00:05 2.207386 159.602756 163 34911ft 466kts
21-Jun-17 00:06 2.083250 159.638960 163 34933ft 466kts
21-Jun-17 00:07 1.959131 159.675145 163 34935ft 466kts
21-Jun-17 00:08 1.835006 159.711334 163 34944ft 466kts
21-Jun-17 00:09 1.710596 159.747599 163 34943ft 466kts
21-Jun-17 00:10 1.586662 159.783724 163 34942ft 466kts
21-Jun-17 00:11 1.462589 159.819877 163 34940ft 466kts
21-Jun-17 00:12 1.338583 159.856009 163 34939ft 466kts
21-Jun-17 00:13 1.214770 159.892081 163 34937ft 465kts
21-Jun-17 00:14 1.090944 159.928155 163 34936ft 465kts
21-Jun-17 00:15 0.966842 159.964306 163 34935ft 465kts
21-Jun-17 00:16 0.844987 159.999814 163 34944ft 465kts
21-Jun-17 00:17 0.721015 160.035909 163 34942ft 465kts
21-Jun-17 00:18 0.597098 160.071998 163 34941ft 465kts
21-Jun-17 00:19 0.473286 160.108055 163 34939ft 465kts
21-Jun-17 00:20 0.349510 160.144101 163 34938ft 465kts
21-Jun-17 00:21 0.225784 160.180135 163 34936ft 465kts
21-Jun-17 00:22 0.102127 160.216142 163 34935ft 465kts
21-Jun-17 00:23 -0.022079 160.252314 163 34933ft 465kts
21-Jun-17 00:24 -0.145652 160.288296 163 34944ft 465kts
21-Jun-17 00:25 -0.269540 160.324370 163 34941ft 464kts
21-Jun-17 00:26 -0.392930 160.360303 163 34940ft 464kts
21-Jun-17 00:27 -0.516936 160.396416 163 34938ft 464kts
21-Jun-17 00:28 -0.640501 160.432415 163 34937ft 464kts
21-Jun-17 00:29 -0.763955 160.468361 163 34936ft 464kts
21-Jun-17 00:30 -0.887589 160.504371 163 34934ft 464kts
21-Jun-17 00:31 -1.011344 160.540422 163 34933ft 464kts
21-Jun-17 00:32 -1.134574 160.576319 163 34944ft 464kts
21-Jun-17 00:33 -1.258417 160.612389 163 34912ft 464kts
21-Jun-17 00:34 -1.382038 160.648422 163 34912ft 464kts
21-Jun-17 00:35 -1.505623 160.684426 163 34914ft 464kts
21-Jun-17 00:36 -1.628897 160.720350 163 34912ft 464kts
21-Jun-17 00:37 -1.752400 160.756347 163 34911ft 464kts
21-Jun-17 00:38 -1.875915 160.792352 163 34909ft 464kts
21-Jun-17 00:39 -1.999490 160.828382 163 34908ft 463kts
21-Jun-17 00:40 -2.122887 160.864366 163 34917ft 463kts
21-Jun-17 00:41 -2.246064 160.900288 163 34916ft 463kts
21-Jun-17 00:42 -2.369469 160.936284 163 34915ft 463kts
21-Jun-17 00:43 -2.492972 160.972315 163 34913ft 463kts
21-Jun-17 00:44 -2.616249 161.008288 163 34912ft 463kts
21-Jun-17 00:45 -2.739281 161.044202 163 34910ft 463kts
21-Jun-17 00:46 -2.862787 161.080253 163 34909ft 463kts
21-Jun-17 00:47 -2.974265 161.112803 163 34907ft 463kts
21-Jun-17 00:48 -3.097826 161.148890 163 34906ft 463kts
21-Jun-17 00:49 -3.220928 161.184851 163 34916ft 463kts
21-Jun-17 00:50 -3.344015 161.220824 164 34914ft 462kts
21-Jun-17 00:51 -3.467065 161.256781 164 34913ft 462kts
21-Jun-17 00:52 -3.590518 161.292873 164 34911ft 462kts
21-Jun-17 00:53 -3.713661 161.328886 164 34910ft 462kts
21-Jun-17 00:54 -3.836556 161.364836 164 34908ft 462kts
21-Jun-17 00:55 -3.959506 161.400821 164 34907ft 462kts
21-Jun-17 00:56 -4.082487 161.436812 164 34905ft 462kts
21-Jun-17 00:57 -4.205601 161.472855 164 34915ft 462kts
21-Jun-17 00:58 -4.328861 161.508955 164 34914ft 462kts
21-Jun-17 00:59 -4.451761 161.544965 164 34912ft 462kts
21-Jun-17 01:00 -4.574356 161.580903 164 34911ft 462kts
21-Jun-17 01:01 -4.697348 161.616960 164 34909ft 462kts
21-Jun-17 01:02 -4.818106 161.652380 164 34908ft 461kts
21-Jun-17 01:03 -4.940943 161.688418 164 34908ft 461kts
21-Jun-17 01:04 -5.063785 161.724475 164 34907ft 461kts
21-Jun-17 01:05 -5.187049 161.760680 164 34917ft 461kts
21-Jun-17 01:06 -5.309909 161.796766 164 34916ft 461kts
21-Jun-17 01:07 -5.432599 161.832822 164 34914ft 461kts
21-Jun-17 01:08 -5.554997 161.868808 164 34913ft 461kts
21-Jun-17 01:09 -5.677969 161.904986 164 34911ft 461kts
21-Jun-17 01:10 -5.800790 161.941123 164 34909ft 461kts
21-Jun-17 01:11 -5.923402 161.977219 164 34908ft 461kts
21-Jun-17 01:12 -6.045804 162.013271 164 34906ft 461kts
21-Jun-17 01:13 -6.167531 162.049144 164 34916ft 460kts
21-Jun-17 01:14 -6.290171 162.085307 164 34915ft 460kts
21-Jun-17 01:15 -6.412957 162.121517 164 34923ft 459kts
21-Jun-17 01:16 -6.534852 162.157502 164 34939ft 459kts
21-Jun-17 01:17 -6.657346 162.193658 164 34938ft 459kts
21-Jun-17 01:18 -6.780355 162.227395 166 34937ft 459kts
21-Jun-17 01:19 -6.903426 162.258748 166 34934ft 459kts
21-Jun-17 01:20 -7.027130 162.290241 166 34933ft 459kts
21-Jun-17 01:21 -7.149507 162.321411 166 34945ft 459kts
21-Jun-17 01:22 -7.273030 162.352876 166 34942ft 459kts
21-Jun-17 01:23 -7.396246 162.384290 166 34941ft 458kts
21-Jun-17 01:24 -7.519486 162.415729 166 34939ft 458kts
21-Jun-17 01:25 -7.643029 162.447280 166 34938ft 458kts
21-Jun-17 01:26 -7.766252 162.478739 166 34936ft 458kts
21-Jun-17 01:27 -7.889178 162.510157 167 34936ft 458kts
21-Jun-17 01:28 -8.008916 162.540849 168 34933ft 445kts
21-Jun-17 01:29 -8.128379 162.571347 168 34950ft 445kts
21-Jun-17 01:30 -8.247994 162.601956 168 34945ft 446kts
21-Jun-17 01:31 -8.367786 162.632647 168 34943ft 445kts
21-Jun-17 01:32 -8.487729 162.663400 168 34940ft 445kts
21-Jun-17 01:33 -8.607421 162.694099 168 34938ft 445kts
21-Jun-17 01:34 -8.727041 162.724803 168 34936ft 445kts
21-Jun-17 01:35 -8.846820 162.755574 168 34934ft 445kts
21-Jun-17 01:36 -8.966393 162.786422 168 34924ft 442kts
21-Jun-17 01:37 -9.086422 162.817163 168 34929ft 445kts
21-Jun-17 01:38 -9.204453 162.847551 168 34945ft 445kts
21-Jun-17 01:39 -9.324094 162.878374 168 34943ft 445kts
21-Jun-17 01:40 -9.443958 162.909263 168 34941ft 445kts
21-Jun-17 01:41 -9.563594 162.940116 168 34939ft 445kts
21-Jun-17 01:42 -9.683185 162.970983 168 34937ft 445kts
21-Jun-17 01:43 -9.802718 163.001859 168 34935ft 445kts
21-Jun-17 01:44 -9.922197 163.032738 168 34932ft 446kts
21-Jun-17 01:45 -10.042268 163.063806 168 34931ft 446kts
21-Jun-17 01:46 -10.162070 163.094818 168 34945ft 446kts
21-Jun-17 01:47 -10.281703 163.125812 168 34944ft 445kts
21-Jun-17 01:48 -10.401485 163.156874 168 34942ft 445kts
21-Jun-17 01:48 -10.501370 163.182793 168 34940ft 446kts
21-Jun-17 01:49 -10.621003 163.213856 168 34939ft 446kts
21-Jun-17 01:50 -10.740592 163.244908 168 34937ft 446kts
21-Jun-17 01:52 -10.880372 163.281289 168 34934ft 445kts
21-Jun-17 01:52 -10.980260 163.307297 168 34933ft 445kts
21-Jun-17 01:53 -11.100006 163.338498 168 34930ft 446kts
21-Jun-17 01:54 -11.219608 163.369676 168 34946ft 446kts
21-Jun-17 01:55 -11.339470 163.400953 168 34944ft 446kts
21-Jun-17 01:56 -11.458846 163.432133 168 34942ft 446kts
21-Jun-17 01:57 -11.578726 163.463466 168 34939ft 446kts
21-Jun-17 01:58 -11.698299 163.494768 169 34938ft 446kts
21-Jun-17 01:59 -11.818185 163.526161 169 34936ft 446kts
21-Jun-17 02:00 -11.937846 163.557525 169 34934ft 446kts
21-Jun-17 02:01 -12.058031 163.589064 169 34932ft 446kts
21-Jun-17 02:02 -12.177700 163.620479 169 34947ft 446kts
21-Jun-17 02:03 -12.297324 163.651926 168 34945ft 446kts
21-Jun-17 02:04 -12.417064 163.683372 169 34944ft 446kts
21-Jun-17 02:05 -12.536942 163.714993 169 34938ft 446kts
21-Jun-17 02:06 -12.656769 163.746583 169 34936ft 446kts
21-Jun-17 02:07 -12.776685 163.778222 169 34934ft 446kts
21-Jun-17 02:08 -12.896648 163.809909 169 34932ft 446kts
21-Jun-17 02:09 -13.016233 163.841524 169 34930ft 446kts
21-Jun-17 02:11 -13.136324 163.873304 169 34949ft 446kts
21-Jun-17 02:12 -13.255997 163.905015 170 34945ft 446kts
21-Jun-17 02:13 -13.375935 163.936796 169 34942ft 446kts
21-Jun-17 02:14 -13.495311 163.971028 164 34941ft 449kts
21-Jun-17 02:15 -13.613314 164.011724 165 34938ft 449kts
21-Jun-17 02:16 -13.731319 164.052452 165 34936ft 449kts
21-Jun-17 02:17 -13.849021 164.093117 165 34934ft 449kts
21-Jun-17 02:18 -13.967034 164.133938 165 34932ft 449kts
21-Jun-17 02:19 -14.085161 164.174844 165 34930ft 448kts
21-Jun-17 02:20 -14.203102 164.215663 165 34974ft 449kts
21-Jun-17 02:21 -14.321036 164.256656 165 34972ft 449kts
21-Jun-17 02:22 -14.438993 164.297636 165 34970ft 449kts
21-Jun-17 02:23 -14.557138 164.338730 165 34968ft 449kts
21-Jun-17 02:24 -14.674818 164.379708 165 34966ft 449kts
21-Jun-17 02:25 -14.793048 164.420942 166 34964ft 449kts
21-Jun-17 02:26 -14.910842 164.462040 166 34962ft 449kts
21-Jun-17 02:27 -15.028843 164.503242 165 34960ft 449kts
21-Jun-17 02:28 -15.146690 164.544488 166 34977ft 449kts
21-Jun-17 02:29 -15.264536 164.585763 166 35059ft 449kts
21-Jun-17 02:30 -15.382308 164.627059 166 35053ft 448kts
21-Jun-17 02:31 -15.499268 164.668134 165 35046ft 449kts
21-Jun-17 02:32 -15.617368 164.709632 165 35044ft 449kts
21-Jun-17 02:33 -15.735043 164.751042 165 35043ft 449kts
21-Jun-17 02:34 -15.853117 164.792776 167 35031ft 453kts
21-Jun-17 02:35 -15.982327 164.838385 169 35033ft 498kts
21-Jun-17 02:36 -16.113354 164.884530 168 35045ft 499kts
21-Jun-17 02:37 -16.244531 164.930933 168 35049ft 499kts
21-Jun-17 02:38 -16.375525 164.977341 168 35048ft 499kts
21-Jun-17 02:39 -16.506826 165.023925 168 35048ft 499kts
21-Jun-17 02:40 -16.637950 165.070513 168 35048ft 499kts
21-Jun-17 02:41 -16.768480 165.116912 168 35055ft 500kts
21-Jun-17 02:42 -16.899489 165.163640 168 35048ft 499kts
21-Jun-17 02:43 -17.030837 165.210513 168 35048ft 499kts
21-Jun-17 02:44 -17.161206 165.257104 168 35054ft 499kts
21-Jun-17 02:45 -17.291901 165.303881 168 35054ft 499kts
21-Jun-17 02:46 -17.422925 165.350847 168 35054ft 499kts
21-Jun-17 02:47 -17.553805 165.397834 169 35054ft 499kts
21-Jun-17 02:48 -17.684582 165.444937 169 35046ft 495kts
21-Jun-17 02:49 -17.815886 165.492137 169 35054ft 499kts
21-Jun-17 02:50 -17.946666 165.539309 169 35054ft 499kts
21-Jun-17 02:51 -18.077321 165.586508 169 35054ft 499kts
21-Jun-17 02:52 -18.208000 165.633781 169 35060ft 499kts
21-Jun-17 02:53 -18.338950 165.681235 168 35045ft 499kts
21-Jun-17 02:54 -18.469967 165.728791 168 35044ft 499kts
21-Jun-17 02:55 -18.600665 165.776305 168 35044ft 499kts
21-Jun-17 02:56 -18.731558 165.823955 168 35042ft 500kts
21-Jun-17 02:57 -18.862616 165.871769 168 35043ft 499kts
21-Jun-17 02:58 -18.993531 165.919598 168 35043ft 499kts
21-Jun-17 02:59 -19.123124 165.966807 166 35032ft 536kts
21-Jun-17 03:00 -19.263687 166.018540 166 35047ft 536kts
21-Jun-17 03:01 -19.404298 166.070189 166 35049ft 536kts
21-Jun-17 03:02 -19.544629 166.121820 166 35050ft 536kts
21-Jun-17 03:03 -19.685534 166.173610 166 35055ft 538kts
21-Jun-17 03:04 -19.825679 166.225521 166 35052ft 536kts
21-Jun-17 03:05 -19.966461 166.277597 166 35054ft 537kts
21-Jun-17 03:06 -20.106350 166.329456 166 35054ft 537kts
21-Jun-17 03:07 -20.247143 166.381741 166 35053ft 537kts
21-Jun-17 03:08 -20.387739 166.434055 166 35054ft 537kts
21-Jun-17 03:09 -20.528115 166.486418 166 35056ft 537kts
21-Jun-17 03:10 -20.668713 166.538917 166 35056ft 537kts
21-Jun-17 03:11 -20.809679 166.591678 166 35058ft 537kts
21-Jun-17 03:12 -20.950101 166.644342 166 35059ft 537kts
21-Jun-17 03:13 -21.090206 166.696982 166 35045ft 537kts
21-Jun-17 03:14 -21.229042 166.749262 166 35043ft 537kts
21-Jun-17 03:15 -21.369854 166.802382 166 35044ft 538kts
21-Jun-17 03:16 -21.510456 166.855542 166 35046ft 538kts
21-Jun-17 03:17 -21.652070 166.909195 166 35047ft 541kts
21-Jun-17 03:18 -21.793260 166.962789 166 35049ft 541kts
21-Jun-17 03:19 -21.934915 167.016670 165 35050ft 541kts
21-Jun-17 03:20 -22.076198 167.070538 165 35052ft 541kts
21-Jun-17 03:21 -22.217908 167.124676 165 35048ft 541kts
21-Jun-17 03:22 -22.359331 167.178873 165 35050ft 541kts
21-Jun-17 03:23 -22.500731 167.233077 165 35051ft 541kts
21-Jun-17 03:24 -22.642469 167.287575 165 35053ft 541kts
21-Jun-17 03:25 -22.783799 167.342040 165 35054ft 541kts
21-Jun-17 03:26 -22.924983 167.396563 165 35055ft 542kts
21-Jun-17 03:27 -23.066615 167.451389 165 35057ft 542kts
21-Jun-17 03:28 -23.207955 167.506216 165 35053ft 542kts
21-Jun-17 03:29 -23.349349 167.561192 165 35055ft 542kts
21-Jun-17 03:30 -23.490595 167.616267 165 35056ft 541kts
21-Jun-17 03:31 -23.631903 167.671421 165 35043ft 542kts
21-Jun-17 03:32 -23.773720 167.726947 165 35045ft 542kts
21-Jun-17 03:33 -23.914983 167.782370 165 35047ft 542kts
21-Jun-17 03:34 -24.056757 167.838138 165 35049ft 542kts
21-Jun-17 03:35 -24.198164 167.893887 165 35045ft 542kts
21-Jun-17 03:36 -24.339505 167.949740 165 35046ft 542kts
21-Jun-17 03:37 -24.481309 168.005874 164 35047ft 543kts
21-Jun-17 03:38 -24.622757 168.062086 165 35049ft 542kts
21-Jun-17 03:39 -24.764127 168.118338 165 35051ft 543kts
21-Jun-17 03:40 -24.905631 168.174797 165 35052ft 543kts
21-Jun-17 03:41 -25.047173 168.231410 165 35054ft 543kts
21-Jun-17 03:42 -25.188807 168.288194 165 35050ft 543kts
21-Jun-17 03:43 -25.330016 168.344951 165 35051ft 542kts
21-Jun-17 03:44 -25.471575 168.401976 164 34935ft 543kts
21-Jun-17 03:45 -25.613079 168.459205 164 34893ft 544kts
21-Jun-17 03:46 -25.754881 168.516583 164 34894ft 543kts
21-Jun-17 03:47 -25.896235 168.573973 164 34895ft 543kts
21-Jun-17 03:48 -26.037710 168.631548 164 34897ft 544kts
21-Jun-17 03:49 -26.179448 168.689395 164 34881ft 544kts
21-Jun-17 03:50 -26.321126 168.747369 164 34882ft 544kts
21-Jun-17 03:51 -26.462950 168.805548 164 34883ft 544kts
21-Jun-17 03:52 -26.604516 168.863772 164 34885ft 544kts
21-Jun-17 03:53 -26.746291 168.922265 164 34886ft 544kts
21-Jun-17 03:54 -26.887805 168.980759 164 34888ft 544kts
21-Jun-17 03:55 -27.029377 169.039454 164 34889ft 544kts
21-Jun-17 03:56 -27.166117 169.109650 156 34885ft 549kts
21-Jun-17 03:57 -27.301164 169.189281 156 34887ft 550kts
21-Jun-17 03:58 -27.435864 169.269130 156 34888ft 550kts
21-Jun-17 03:59 -27.570975 169.349459 156 34890ft 549kts
21-Jun-17 04:00 -27.705827 169.429846 155 34892ft 550kts
21-Jun-17 04:01 -27.840593 169.510446 155 34893ft 550kts
21-Jun-17 04:02 -27.974959 169.590991 155 34895ft 549kts
21-Jun-17 04:03 -28.109639 169.671929 155 34883ft 550kts
21-Jun-17 04:04 -28.244281 169.753150 155 34881ft 550kts
21-Jun-17 04:05 -28.379228 169.834758 155 34883ft 550kts
21-Jun-17 04:06 -28.513819 169.916378 155 34885ft 550kts
21-Jun-17 04:07 -28.648228 169.998139 155 34887ft 550kts
21-Jun-17 04:08 -28.782978 170.080339 155 34888ft 550kts
21-Jun-17 04:09 -28.917349 170.162535 155 34891ft 550kts
21-Jun-17 04:10 -29.051643 170.244969 155 34892ft 550kts
21-Jun-17 04:11 -29.183699 170.326244 155 34887ft 550kts
21-Jun-17 04:12 -29.317979 170.409118 154 34889ft 550kts
21-Jun-17 04:13 -29.452291 170.492298 154 34890ft 550kts
21-Jun-17 04:13 -29.564118 170.561764 154 34893ft 550kts
21-Jun-17 04:15 -29.720342 170.659020 154 34888ft 550kts
21-Jun-17 04:15 -29.832179 170.728887 154 34885ft 550kts
21-Jun-17 04:16 -29.966377 170.812961 154 34887ft 550kts
21-Jun-17 04:17 -30.100355 170.897170 154 34889ft 550kts
21-Jun-17 04:18 -30.233894 170.981375 154 34884ft 550kts
21-Jun-17 04:19 -30.367740 171.066009 154 34886ft 550kts
21-Jun-17 04:20 -30.501432 171.150783 153 34889ft 547kts
21-Jun-17 04:21 -30.635259 171.236047 154 34888ft 550kts
21-Jun-17 04:22 -30.768865 171.321339 153 34891ft 550kts
21-Jun-17 04:23 -30.902242 171.406781 153 34892ft 549kts
21-Jun-17 04:24 -31.035874 171.492635 153 34894ft 550kts
21-Jun-17 04:25 -31.168987 171.578468 153 34889ft 549kts
21-Jun-17 04:26 -31.300810 171.663720 153 34882ft 549kts
21-Jun-17 04:27 -31.433772 171.750002 153 34883ft 549kts
21-Jun-17 04:28 -31.567021 171.836747 152 34885ft 549kts
21-Jun-17 04:29 -31.699825 171.923499 153 34885ft 549kts
21-Jun-17 04:30 -31.832804 172.010636 153 34888ft 549kts
21-Jun-17 04:31 -31.965693 172.097991 152 34890ft 549kts
21-Jun-17 04:32 -32.098820 172.185836 152 34892ft 549kts
21-Jun-17 04:34 -32.231347 172.273538 152 34886ft 549kts
21-Jun-17 04:35 -32.364035 172.361740 152 34900ft 550kts
21-Jun-17 04:36 -32.496202 172.449781 152 35072ft 548kts
21-Jun-17 04:37 -32.628569 172.538284 152 35134ft 548kts
21-Jun-17 04:38 -32.761115 172.627220 152 35136ft 547kts
21-Jun-17 04:39 -32.893355 172.716244 152 35130ft 548kts
21-Jun-17 04:40 -33.025320 172.805418 152 35131ft 547kts
21-Jun-17 04:41 -33.155272 172.893520 152 35125ft 547kts
21-Jun-17 04:42 -33.287049 172.983177 152 35127ft 547kts
21-Jun-17 04:43 -33.418657 173.073042 151 35128ft 548kts
21-Jun-17 04:44 -33.550292 173.163223 151 35130ft 547kts
21-Jun-17 04:45 -33.681889 173.253698 151 35132ft 546kts
21-Jun-17 04:46 -33.813443 173.344481 151 35134ft 546kts
21-Jun-17 04:47 -33.954824 173.399945 178 35139ft 536kts
21-Jun-17 04:48 -34.102456 173.416727 177 35137ft 537kts
21-Jun-17 04:49 -34.249835 173.434256 177 35130ft 537kts
21-Jun-17 04:50 -34.397879 173.451994 177 35131ft 536kts
21-Jun-17 04:51 -34.545922 173.469788 177 35132ft 537kts
21-Jun-17 04:52 -34.694081 173.487667 177 35133ft 536kts
21-Jun-17 04:53 -34.842467 173.505633 177 35134ft 537kts
21-Jun-17 04:54 -34.989928 173.523503 177 35128ft 535kts
21-Jun-17 04:55 -35.137662 173.541582 177 35101ft 536kts
21-Jun-17 04:56 -35.285591 173.559680 177 35104ft 536kts
21-Jun-17 04:57 -35.434030 173.577875 177 34545ft 538kts
21-Jun-17 04:58 -35.581764 173.596046 176 32861ft 540kts
21-Jun-17 04:59 -35.730973 173.614523 175 31087ft 541kts
21-Jun-17 05:00 -35.878284 173.632843 175 28906ft 526kts
21-Jun-17 05:01 -36.021736 173.650822 174 26492ft 515kts
21-Jun-17 05:02 -36.159794 173.668036 174 23937ft 509kts
21-Jun-17 05:03 -36.298517 173.685920 177 21306ft 496kts
21-Jun-17 05:04 -36.425838 173.736082 147 18889ft 477kts
21-Jun-17 05:05 -36.441670 173.750943 142 18625ft 472kts
21-Jun-17 05:06 -36.441670 173.750943 142 18625ft 472kts
21-Jun-17 05:07 -36.441670 173.750943 142 18625ft 472kts
21-Jun-17 05:08 -36.441670 173.750943 142 18625ft 472kts
21-Jun-17 05:09 -36.441670 173.750943 142 18625ft 472kts
21-Jun-17 05:10 -36.441670 173.750943 142 18625ft 472kts
21-Jun-17 05:11 -36.441670 173.750943 142 18625ft 472kts
21-Jun-17 05:12 -36.441670 173.750943 142 18625ft 472kts
21-Jun-17 05:13 -36.441670 173.750943 142 18625ft 472kts
21-Jun-17 05:14 -36.441670 173.750943 142 18625ft 472kts
21-Jun-17 05:15 -36.441670 173.750943 142 18625ft 472kts
21-Jun-17 05:16 -36.441670 173.750943 142 18625ft 472kts
21-Jun-17 05:17 -36.441670 173.750943 142 18625ft 472kts
21-Jun-17 05:18 -36.441670 173.750943 142 18625ft 472kts
21-Jun-17 05:19 -36.441670 173.750943 142 18625ft 472kts
21-Jun-17 05:20 -36.441670 173.750943 142 18625ft 472kts
21-Jun-17 05:21 -36.441670 173.750943 142 18625ft 472kts
21-Jun-17 05:22 -36.441670 173.750943 142 18625ft 472kts
21-Jun-17 05:23 -36.441670 173.750943 142 18625ft 472kts
21-Jun-17 05:24 -36.441670 173.750943 142 18625ft 472kts
21-Jun-17 05:25 -36.441670 173.750943 142 18625ft 472kts
21-Jun-17 05:26 -36.441670 173.750943 142 18625ft 472kts
21-Jun-17 05:27 -36.441670 173.750943 142 18625ft 472kts
21-Jun-17 05:28 -36.441670 173.750943 142 18625ft 472kts
21-Jun-17 05:29 -36.441670 173.750943 142 18625ft 472kts
21-Jun-17 05:30 -36.441670 173.750943 142 18625ft 472kts
21-Jun-17 05:31 -36.441670 173.750943 142 18625ft 472kts
21-Jun-17 05:32 -36.441670 173.750943 142 18625ft 472kts
21-Jun-17 05:33 -36.441670 173.750943 142 18625ft 472kts
21-Jun-17 05:34 -36.441670 173.750943 142 18625ft 472kts
21-Jun-17 05:35 -36.441670 173.750943 142 18625ft 472kts
21-Jun-17 05:36 -36.441670 173.750943 142 18625ft 472kts
21-Jun-17 05:37 -36.441670 173.750943 142 18625ft 472kts
21-Jun-17 05:38 -36.441670 173.750943 142 18625ft 472kts
21-Jun-17 05:39 -36.441670 173.750943 142 18625ft 472kts
21-Jun-17 05:40 -36.441670 173.750943 142 18625ft 472kts
21-Jun-17 05:41 -36.441670 173.750943 142 18625ft 472kts
21-Jun-17 05:42 -36.441670 173.750943 142 18625ft 472kts
21-Jun-17 05:43 -36.441670 173.750943 142 18625ft 472kts
21-Jun-17 05:44 -36.441670 173.750943 142 18625ft 472kts
21-Jun-17 05:45 -36.441670 173.750943 142 18625ft 472kts
21-Jun-17 05:46 -36.441670 173.750943 142 18625ft 472kts
21-Jun-17 05:47 -36.441670 173.750943 142 18625ft 472kts
21-Jun-17 05:48 -36.441670 173.750943 142 18625ft 472kts
21-Jun-17 05:49 -36.441670 173.750943 142 18625ft 472kts
21-Jun-17 05:50 -36.441670 173.750943 142 18625ft 472kts
21-Jun-17 05:51 -36.441670 173.750943 142 18625ft 472kts
21-Jun-17 05:52 -36.441670 173.750943 142 18625ft 472kts
21-Jun-17 05:53 -36.441670 173.750943 142 18625ft 472kts
21-Jun-17 05:54 -36.441670 173.750943 142 18625ft 472kts
21-Jun-17 05:55 -36.441670 173.750943 142 18625ft 472kts
21-Jun-17 05:56 -36.441670 173.750943 142 18625ft 472kts
21-Jun-17 05:57 -36.441670 173.750943 142 18625ft 472kts
21-Jun-17 05:58 -36.441670 173.750943 142 18625ft 472kts
21-Jun-17 05:59 -36.441670 173.750943 142 18625ft 472kts
21-Jun-17 06:00 -36.441670 173.750943 142 18625ft 472kts
21-Jun-17 06:01 -36.441670 173.750943 142 18625ft 472kts
21-Jun-17 06:02 -36.441670 173.750943 142 18625ft 472kts
21-Jun-17 06:03 -36.441670 173.750943 142 18625ft 472kts
21-Jun-17 06:04 -36.441670 173.750943 142 18625ft 472kts
21-Jun-17 06:05 -36.441670 173.750943 142 18625ft 472kts
21-Jun-17 06:06 -36.441670 173.750943 142 18625ft 472kts
21-Jun-17 06:07 -36.441670 173.750943 142 18625ft 472kts
21-Jun-17 06:08 -36.441670 173.750943 142 18625ft 472kts
21-Jun-17 06:09 -36.441670 173.750943 142 18625ft 472kts
21-Jun-17 06:10 -36.441670 173.750943 142 18625ft 472kts
21-Jun-17 06:11 -36.441670 173.750943 142 18625ft 472kts
21-Jun-17 06:12 -36.441670 173.750943 142 18625ft 472kts
21-Jun-17 06:13 -36.441670 173.750943 142 18625ft 472kts
21-Jun-17 06:14 -36.441670 173.750943 142 18625ft 472kts
21-Jun-17 06:15 -36.441670 173.750943 142 18625ft 472kts
21-Jun-17 06:16 -36.441670 173.750943 142 18625ft 472kts
21-Jun-17 06:17 -36.441670 173.750943 142 18625ft 472kts
21-Jun-17 06:18 -36.441670 173.750943 142 18625ft 472kts
21-Jun-17 06:19 -36.441670 173.750943 142 18625ft 472kts
21-Jun-17 06:20 -36.441670 173.750943 142 18625ft 472kts
21-Jun-17 06:21 -36.441670 173.750943 142 18625ft 472kts
21-Jun-17 06:22 -36.441670 173.750943 142 18625ft 472kts
21-Jun-17 06:23 -36.441670 173.750943 142 18625ft 472kts
21-Jun-17 06:24 -36.441670 173.750943 142 18625ft 472kts
21-Jun-17 06:25 -36.441670 173.750943 142 18625ft 472kts
21-Jun-17 06:26 -36.441670 173.750943 142 18625ft 472kts
21-Jun-17 06:27 -36.441670 173.750943 142 18625ft 472kts
21-Jun-17 06:28 -36.441670 173.750943 142 18625ft 472kts
21-Jun-17 06:29 -36.441670 173.750943 142 18625ft 472kts
21-Jun-17 06:30 -36.441670 173.750943 142 18625ft 472kts
21-Jun-17 06:31 -36.441670 173.750943 142 18625ft 472kts
21-Jun-17 06:32 -36.441670 173.750943 142 18625ft 472kts
21-Jun-17 06:33 -36.441670 173.750943 142 18625ft 472kts
21-Jun-17 06:33 -36.441670 173.750943 142 18625ft 472kts
21-Jun-17 06:34 -36.441670 173.750943 142 18625ft 472kts
21-Jun-17 06:35 -36.441670 173.750943 142 18625ft 472kts
21-Jun-17 06:36 -36.441670 173.750943 142 18625ft 472kts
21-Jun-17 06:37 -36.441670 173.750943 142 18625ft 472kts
21-Jun-17 06:39 -36.441670 173.750943 142 18625ft 472kts
21-Jun-17 06:40 -36.441670 173.750943 142 18625ft 472kts
21-Jun-17 06:40 -36.441670 173.750943 142 18625ft 472kts
21-Jun-17 06:42 -36.441670 173.750943 142 18625ft 472kts
21-Jun-17 06:42 -36.441670 173.750943 142 18625ft 472kts
21-Jun-17 06:43 -36.441670 173.750943 142 18625ft 472kts
21-Jun-17 06:44 -36.441670 173.750943 142 18625ft 472kts
21-Jun-17 06:45 -36.441670 173.750943 142 18625ft 472kts
21-Jun-17 06:46 -36.441670 173.750943 142 18625ft 472kts
21-Jun-17 06:47 -36.441670 173.750943 142 18625ft 472kts
21-Jun-17 06:48 -36.441670 173.750943 142 18625ft 472kts
21-Jun-17 06:49 -36.441670 173.750943 142 18625ft 472kts
21-Jun-17 06:50 -36.441670 173.750943 142 18625ft 472kts
21-Jun-17 06:51 -36.441670 173.750943 142 18625ft 472kts
21-Jun-17 06:52 -36.441670 173.750943 142 18625ft 472kts
21-Jun-17 06:54 -36.441670 173.750943 142 18625ft 472kts
21-Jun-17 06:55 -36.441670 173.750943 142 18625ft 472kts
21-Jun-17 06:56 -36.441670 173.750943 142 18625ft 472kts
21-Jun-17 06:57 -36.441670 173.750943 142 18625ft 472kts
21-Jun-17 06:58 -36.441670 173.750943 142 18625ft 472kts
21-Jun-17 06:59 -36.441670 173.750943 142 18625ft 472kts
21-Jun-17 07:00 -36.441670 173.750943 142 18625ft 472kts
21-Jun-17 07:01 -36.441670 173.750943 142 18625ft 472kts
21-Jun-17 07:02 -36.441670 173.750943 142 18625ft 472kts
21-Jun-17 07:03 -36.441670 173.750943 142 18625ft 472kts
21-Jun-17 07:04 -36.441670 173.750943 142 18625ft 472kts
21-Jun-17 07:05 -36.441670 173.750943 142 18625ft 472kts
21-Jun-17 07:06 -36.441670 173.750943 142 18625ft 472kts
21-Jun-17 07:07 -36.441670 173.750943 142 18625ft 472kts
21-Jun-17 07:08 -36.441670 173.750943 142 18625ft 472kts
21-Jun-17 07:09 -36.441670 173.750943 142 18625ft 472kts
21-Jun-17 07:10 -36.441670 173.750943 142 18625ft 472kts
21-Jun-17 07:11 -36.441670 173.750943 142 18625ft 472kts
21-Jun-17 07:12 -36.441670 173.750943 142 18625ft 472kts
21-Jun-17 07:13 -36.441670 173.750943 142 18625ft 472kts
21-Jun-17 07:14 -36.441670 173.750943 142 18625ft 472kts
21-Jun-17 07:15 -36.441670 173.750943 142 18625ft 472kts
21-Jun-17 07:16 -36.441670 173.750943 142 18625ft 472kts
21-Jun-17 07:17 -36.441670 173.750943 142 18625ft 472kts
21-Jun-17 07:18 -36.441670 173.750943 142 18625ft 472kts
21-Jun-17 07:19 -36.441670 173.750943 142 18625ft 472kts
21-Jun-17 07:20 -36.441670 173.750943 142 18625ft 472kts
21-Jun-17 07:21 -36.441670 173.750943 142 18625ft 472kts
21-Jun-17 07:22 -36.441670 173.750943 142 18625ft 472kts
21-Jun-17 07:23 -36.441670 173.750943 142 18625ft 472kts
21-Jun-17 07:24 -36.441670 173.750943 142 18625ft 472kts
21-Jun-17 07:25 -36.441670 173.750943 142 18625ft 472kts
21-Jun-17 07:26 -36.441670 173.750943 142 18625ft 472kts
21-Jun-17 07:27 -36.441670 173.750943 142 18625ft 472kts
21-Jun-17 07:28 -36.441670 173.750943 142 18625ft 472kts
21-Jun-17 07:29 -36.441670 173.750943 142 18625ft 472kts
21-Jun-17 07:30 -36.441670 173.750943 142 18625ft 472kts
21-Jun-17 07:31 -36.441670 173.750943 142 18625ft 472kts
21-Jun-17 07:32 -36.441670 173.750943 142 18625ft 472kts
21-Jun-17 07:33 -36.441670 173.750943 142 18625ft 472kts
21-Jun-17 07:34 -36.441670 173.750943 142 18625ft 472kts
21-Jun-17 07:35 -36.441670 173.750943 142 18625ft 472kts
21-Jun-17 07:36 -36.441670 173.750943 142 18625ft 472kts
21-Jun-17 07:37 -36.441670 173.750943 142 18625ft 472kts
21-Jun-17 07:38 -36.441670 173.750943 142 18625ft 472kts
21-Jun-17 07:39 -36.441670 173.750943 142 18625ft 472kts
21-Jun-17 07:40 -36.441670 173.750943 142 18625ft 472kts
21-Jun-17 07:41 -36.441670 173.750943 142 18625ft 472kts
21-Jun-17 07:42 -36.441670 173.750943 142 18625ft 472kts
21-Jun-17 07:43 -36.441670 173.750943 142 18625ft 472kts
21-Jun-17 07:44 -36.441670 173.750943 142 18625ft 472kts
21-Jun-17 07:45 -36.441670 173.750943 142 18625ft 472kts
21-Jun-17 07:46 -36.441670 173.750943 142 18625ft 472kts
21-Jun-17 07:47 -36.441670 173.750943 142 18625ft 472kts
21-Jun-17 07:48 -36.441670 173.750943 142 18625ft 472kts
21-Jun-17 07:49 -36.441670 173.750943 142 18625ft 472kts
21-Jun-17 07:50 -36.441670 173.750943 142 18625ft 472kts
21-Jun-17 07:51 -36.441670 173.750943 142 18625ft 472kts
21-Jun-17 07:52 -36.441670 173.750943 142 18625ft 472kts
21-Jun-17 07:53 -36.441670 173.750943 142 18625ft 472kts
21-Jun-17 07:54 -36.441670 173.750943 142 18625ft 472kts
21-Jun-17 07:55 -36.441670 173.750943 142 18625ft 472kts
21-Jun-17 07:56 -36.441670 173.750943 142 18625ft 472kts
21-Jun-17 07:57 -36.441670 173.750943 142 18625ft 472kts
21-Jun-17 07:58 -36.441670 173.750943 142 18625ft 472kts
21-Jun-17 07:59 -36.441670 173.750943 142 18625ft 472kts
21-Jun-17 08:00 -36.441670 173.750943 142 18625ft 472kts
21-Jun-17 08:01 -36.441670 173.750943 142 18625ft 472kts
21-Jun-17 08:02 -36.441670 173.750943 142 18625ft 472kts
21-Jun-17 08:03 -36.441670 173.750943 142 18625ft 472kts
21-Jun-17 08:04 -36.441670 173.750943 142 18625ft 472kts
21-Jun-17 08:05 -36.441670 173.750943 142 18625ft 472kts
21-Jun-17 08:06 -36.441670 173.750943 142 18625ft 472kts
21-Jun-17 08:07 -36.441670 173.750943 142 18625ft 472kts
21-Jun-17 08:08 -36.441670 173.750943 142 18625ft 472kts
21-Jun-17 08:09 -36.441670 173.750943 142 18625ft 472kts
21-Jun-17 08:10 -36.441670 173.750943 142 18625ft 472kts
21-Jun-17 08:11 -36.441670 173.750943 142 18625ft 472kts
21-Jun-17 08:12 -36.441670 173.750943 142 18625ft 472kts
21-Jun-17 08:13 -36.441670 173.750943 142 18625ft 472kts
21-Jun-17 08:14 -36.441670 173.750943 142 18625ft 472kts
21-Jun-17 08:15 -36.441670 173.750943 142 18625ft 472kts
21-Jun-17 08:16 -36.441670 173.750943 142 18625ft 472kts
21-Jun-17 08:17 -36.441670 173.750943 142 18625ft 472kts
21-Jun-17 08:18 -36.441670 173.750943 142 18625ft 472kts
21-Jun-17 08:19 -36.441670 173.750943 142 18625ft 472kts
21-Jun-17 08:20 -36.441670 173.750943 142 18625ft 472kts
21-Jun-17 08:21 -36.441670 173.750943 142 18625ft 472kts
21-Jun-17 08:22 -36.441670 173.750943 142 18625ft 472kts
21-Jun-17 08:23 -36.441670 173.750943 142 18625ft 472kts
21-Jun-17 08:24 -36.441670 173.750943 142 18625ft 472kts
21-Jun-17 08:25 -36.441670 173.750943 142 18625ft 472kts
21-Jun-17 08:26 -36.441670 173.750943 142 18625ft 472kts
21-Jun-17 08:27 -36.441670 173.750943 142 18625ft 380kts
21-Jun-17 08:28 -36.504448 173.827613 130 15895ft 331kts
21-Jun-17 08:29 -36.569123 173.907439 131 14288ft 328kts
21-Jun-17 08:30 -36.632911 173.985350 131 12758ft 316kts
21-Jun-17 08:31 -36.696446 174.063186 131 11053ft 326kts
21-Jun-17 08:32 -36.760788 174.141982 130 9098ft 299kts
21-Jun-17 08:33 -36.818304 174.212775 129 7559ft 289kts
21-Jun-17 08:34 -36.875177 174.282960 128 6654ft 283kts
21-Jun-17 08:35 -36.930309 174.351108 128 5662ft 276kts
21-Jun-17 08:36 -36.984326 174.418043 127 4700ft 270kts
21-Jun-17 08:37 -37.036448 174.482666 127 4178ft 254kts
21-Jun-17 08:38 -37.074878 174.548105 82 3385ft 215kts
21-Jun-17 08:39 -37.058722 174.614440 72 2622ft 180kts
21-Jun-17 08:40 -37.044947 174.666600 72 1703ft 142kts
21-Jun-17 08:41 -37.032189 174.713083 71 822ft 139kts
21-Jun-17 08:42 -37.019414 174.759426 72 260ft 144kts
21-Jun-17 08:43 -37.009958 174.790271 43 37ft 41kts
21-Jun-17 08:44 -37.007133 174.791706 333 41ft 0kts
21-Jun-17 08:45 -37.016445 174.770300 71 56ft 146kts
21-Jun-17 08:46 -37.013471 174.781070 71 35ft 103kts

Navigation Log

Ident Type
Flight plan parsing failed, navigation log unavailable